createdAt,value
2023-01-09T00:00:36.722Z,71.57
2023-01-09T00:01:37.581Z,71.47
2023-01-09T00:02:38.487Z,71.47
2023-01-09T00:03:39.218Z,71.47
2023-01-09T00:04:40.076Z,71.67
2023-01-09T00:05:40.964Z,71.88
2023-01-09T00:06:41.888Z,72.19
2023-01-09T00:07:42.768Z,72.29
2023-01-09T00:08:43.631Z,72.60
2023-01-09T00:09:44.509Z,72.71
2023-01-09T00:10:45.396Z,72.53
2023-01-09T00:11:46.298Z,72.22
2023-01-09T00:12:47.147Z,72.43
2023-01-09T00:13:48.039Z,72.53
2023-01-09T00:14:48.904Z,72.43
2023-01-09T00:15:49.783Z,72.53
2023-01-09T00:16:50.820Z,72.02
2023-01-09T00:17:51.170Z,72.19
2023-01-09T00:18:52.041Z,72.08
2023-01-09T00:19:52.946Z,71.78
2023-01-09T00:20:53.807Z,71.78
2023-01-09T00:21:54.705Z,71.57
2023-01-09T00:22:55.588Z,71.53
2023-01-09T00:23:56.471Z,71.43
2023-01-09T00:24:57.342Z,71.33
2023-01-09T00:25:58.222Z,71.33
2023-01-09T00:26:59.127Z,71.02
2023-01-09T00:27:59.985Z,70.81
2023-01-09T00:29:00.868Z,70.71
2023-01-09T00:30:01.749Z,70.92
2023-01-09T00:31:02.694Z,70.81
2023-01-09T00:32:03.579Z,70.81
2023-01-09T00:33:04.462Z,70.92
2023-01-09T00:34:05.344Z,71.02
2023-01-09T00:35:06.228Z,70.92
2023-01-09T00:36:07.116Z,71.12
2023-01-09T00:37:07.976Z,70.98
2023-01-09T00:38:08.856Z,70.92
2023-01-09T00:39:09.740Z,70.78
2023-01-09T00:40:10.629Z,70.67
2023-01-09T00:41:11.531Z,70.78
2023-01-09T00:42:12.474Z,70.88
2023-01-09T00:43:13.288Z,70.98
2023-01-09T00:44:14.173Z,70.98
2023-01-09T00:45:15.062Z,71.19
2023-01-09T00:46:15.971Z,71.19
2023-01-09T00:47:16.822Z,71.19
2023-01-09T00:48:17.703Z,70.98
2023-01-09T00:49:18.597Z,70.98
2023-01-09T00:50:19.465Z,70.98
2023-01-09T00:51:20.351Z,71.30
2023-01-09T00:52:21.241Z,70.98
2023-01-09T00:53:22.100Z,70.67
2023-01-09T00:54:22.977Z,70.78
2023-01-09T00:55:23.868Z,70.78
2023-01-09T00:56:24.742Z,70.78
2023-01-09T00:57:25.648Z,70.88
2023-01-09T00:58:26.532Z,70.78
2023-01-09T00:59:27.442Z,70.37
2023-01-09T01:00:28.304Z,70.47
2023-01-09T01:01:29.320Z,70.78
2023-01-09T01:02:29.822Z,70.37
2023-01-09T01:03:30.206Z,70.33
2023-01-09T01:04:31.077Z,70.33
2023-01-09T01:05:31.965Z,70.64
2023-01-09T01:06:32.842Z,70.64
2023-01-09T01:07:33.726Z,70.43
2023-01-09T01:08:34.613Z,70.85
2023-01-09T01:09:35.543Z,70.75
2023-01-09T01:10:36.370Z,70.43
2023-01-09T01:11:37.262Z,70.33
2023-01-09T01:12:38.162Z,70.75
2023-01-09T01:13:39.016Z,70.23
2023-01-09T01:14:39.905Z,70.33
2023-01-09T01:15:40.790Z,70.12
2023-01-09T01:16:41.733Z,70.03
2023-01-09T01:17:42.576Z,69.71
2023-01-09T01:18:43.441Z,69.61
2023-01-09T01:19:44.324Z,70.03
2023-01-09T01:20:45.196Z,70.33
2023-01-09T01:21:46.085Z,69.92
2023-01-09T01:22:46.963Z,70.23
2023-01-09T01:23:47.839Z,70.33
2023-01-09T01:24:48.721Z,70.03
2023-01-09T01:25:49.606Z,70.33
2023-01-09T01:26:50.486Z,70.12
2023-01-09T01:27:51.387Z,70.33
2023-01-09T01:28:52.260Z,70.43
2023-01-09T01:29:53.133Z,71.06
2023-01-09T01:30:54.064Z,70.95
2023-01-09T01:31:54.928Z,70.23
2023-01-09T01:32:55.815Z,70.43
2023-01-09T01:33:56.689Z,70.54
2023-01-09T01:34:57.594Z,70.54
2023-01-09T01:35:58.465Z,70.75
2023-01-09T01:36:59.364Z,70.54
2023-01-09T01:38:00.241Z,71.06
2023-01-09T01:39:01.123Z,71.06
2023-01-09T01:40:02.003Z,71.16
2023-01-09T01:41:02.895Z,71.06
2023-01-09T01:42:03.787Z,71.06
2023-01-09T01:43:04.682Z,70.95
2023-01-09T01:44:05.536Z,71.19
2023-01-09T01:45:06.423Z,71.19
2023-01-09T01:46:07.345Z,71.30
2023-01-09T01:47:08.192Z,71.61
2023-01-09T01:48:09.070Z,71.30
2023-01-09T01:49:09.949Z,71.19
2023-01-09T01:50:10.823Z,71.61
2023-01-09T01:51:11.701Z,71.81
2023-01-09T01:52:12.598Z,71.50
2023-01-09T01:53:13.485Z,71.09
2023-01-09T01:54:14.351Z,71.30
2023-01-09T01:55:15.232Z,71.30
2023-01-09T01:56:16.106Z,71.30
2023-01-09T01:57:17.005Z,71.09
2023-01-09T01:58:17.890Z,71.09
2023-01-09T01:59:18.756Z,71.19
2023-01-09T02:00:19.634Z,71.61
2023-01-09T02:01:20.581Z,72.12
2023-01-09T02:02:21.616Z,72.02
2023-01-09T02:03:22.457Z,71.61
2023-01-09T02:04:23.343Z,71.19
2023-01-09T02:05:24.228Z,70.78
2023-01-09T02:06:25.095Z,70.98
2023-01-09T02:07:25.988Z,71.09
2023-01-09T02:08:26.861Z,71.40
2023-01-09T02:09:27.746Z,71.50
2023-01-09T02:10:28.613Z,71.09
2023-01-09T02:11:29.508Z,70.98
2023-01-09T02:12:30.389Z,70.98
2023-01-09T02:13:31.297Z,70.88
2023-01-09T02:14:32.164Z,71.09
2023-01-09T02:15:33.036Z,71.40
2023-01-09T02:16:33.934Z,70.98
2023-01-09T02:17:34.851Z,70.88
2023-01-09T02:18:35.744Z,70.98
2023-01-09T02:19:36.641Z,71.33
2023-01-09T02:20:37.516Z,71.43
2023-01-09T02:21:38.416Z,71.33
2023-01-09T02:22:39.316Z,71.33
2023-01-09T02:23:40.220Z,71.53
2023-01-09T02:24:41.088Z,71.95
2023-01-09T02:25:41.951Z,72.05
2023-01-09T02:26:42.827Z,72.05
2023-01-09T02:27:43.720Z,71.95
2023-01-09T02:28:44.613Z,72.47
2023-01-09T02:29:45.473Z,72.60
2023-01-09T02:30:46.355Z,72.71
2023-01-09T02:31:47.255Z,72.60
2023-01-09T02:32:48.136Z,72.53
2023-01-09T02:33:49.020Z,73.25
2023-01-09T02:34:49.896Z,73.05
2023-01-09T02:35:50.784Z,73.57
2023-01-09T02:36:51.663Z,73.81
2023-01-09T02:37:52.556Z,74.32
2023-01-09T02:38:53.427Z,74.32
2023-01-09T02:39:54.308Z,74.63
2023-01-09T02:40:55.181Z,74.63
2023-01-09T02:41:56.066Z,74.74
2023-01-09T02:42:56.956Z,74.88
2023-01-09T02:43:57.859Z,74.88
2023-01-09T02:44:58.714Z,75.29
2023-01-09T02:45:59.607Z,74.88
2023-01-09T02:47:00.480Z,74.98
2023-01-09T02:48:01.370Z,74.77
2023-01-09T02:49:02.258Z,74.57
2023-01-09T02:50:03.136Z,74.67
2023-01-09T02:51:04.010Z,74.57
2023-01-09T02:52:04.892Z,74.57
2023-01-09T02:53:05.776Z,74.63
2023-01-09T02:54:06.664Z,74.43
2023-01-09T02:55:07.564Z,74.43
2023-01-09T02:56:08.436Z,74.43
2023-01-09T02:57:09.341Z,74.43
2023-01-09T02:58:10.279Z,73.39
2023-01-09T02:59:11.167Z,73.91
2023-01-09T03:00:12.056Z,73.60
2023-01-09T03:01:13.038Z,73.81
2023-01-09T03:02:13.882Z,74.22
2023-01-09T03:03:14.844Z,74.12
2023-01-09T03:04:15.730Z,73.81
2023-01-09T03:05:16.600Z,73.39
2023-01-09T03:06:17.490Z,73.39
2023-01-09T03:07:18.364Z,73.71
2023-01-09T03:08:19.279Z,73.88
2023-01-09T03:09:20.170Z,73.77
2023-01-09T03:10:21.079Z,73.77
2023-01-09T03:11:21.971Z,73.77
2023-01-09T03:12:22.876Z,73.77
2023-01-09T03:13:23.786Z,73.36
2023-01-09T03:14:24.704Z,73.36
2023-01-09T03:15:25.553Z,73.67
2023-01-09T03:16:26.485Z,73.57
2023-01-09T03:17:27.365Z,73.46
2023-01-09T03:18:28.266Z,73.67
2023-01-09T03:19:29.166Z,73.91
2023-01-09T03:20:30.064Z,73.98
2023-01-09T03:21:30.973Z,74.12
2023-01-09T03:22:31.824Z,74.12
2023-01-09T03:23:32.728Z,74.22
2023-01-09T03:24:33.619Z,74.12
2023-01-09T03:25:34.511Z,74.22
2023-01-09T03:26:35.378Z,74.22
2023-01-09T03:27:36.249Z,74.32
2023-01-09T03:28:37.145Z,74.43
2023-01-09T03:29:38.045Z,74.53
2023-01-09T03:30:38.907Z,74.63
2023-01-09T03:31:39.850Z,74.74
2023-01-09T03:32:40.676Z,74.74
2023-01-09T03:33:41.558Z,74.98
2023-01-09T03:34:42.439Z,75.09
2023-01-09T03:35:43.335Z,75.19
2023-01-09T03:36:44.209Z,75.19
2023-01-09T03:37:45.091Z,75.29
2023-01-09T03:38:45.979Z,75.50
2023-01-09T03:39:46.873Z,75.29
2023-01-09T03:40:47.736Z,75.60
2023-01-09T03:41:48.618Z,75.81
2023-01-09T03:42:49.492Z,75.71
2023-01-09T03:43:50.386Z,75.84
2023-01-09T03:44:51.299Z,75.92
2023-01-09T03:45:52.247Z,76.36
2023-01-09T03:46:52.644Z,75.95
2023-01-09T03:47:53.519Z,75.63
2023-01-09T03:48:54.420Z,76.05
2023-01-09T03:49:55.295Z,76.05
2023-01-09T03:50:56.179Z,76.15
2023-01-09T03:51:57.053Z,75.95
2023-01-09T03:52:57.933Z,76.15
2023-01-09T03:53:58.817Z,76.26
2023-01-09T03:54:59.699Z,76.36
2023-01-09T03:56:00.600Z,76.36
2023-01-09T03:57:01.456Z,76.36
2023-01-09T03:58:02.328Z,76.46
2023-01-09T03:59:03.222Z,76.57
2023-01-09T04:00:04.129Z,76.36
2023-01-09T04:01:05.204Z,76.26
2023-01-09T04:02:05.828Z,76.12
2023-01-09T04:03:06.208Z,76.02
2023-01-09T04:04:07.197Z,76.12
2023-01-09T04:05:08.044Z,76.32
2023-01-09T04:06:08.968Z,76.32
2023-01-09T04:07:09.849Z,76.32
2023-01-09T04:08:10.739Z,76.43
2023-01-09T04:09:11.629Z,76.32
2023-01-09T04:10:12.506Z,76.43
2023-01-09T04:11:13.416Z,76.43
2023-01-09T04:12:14.270Z,76.43
2023-01-09T04:13:15.147Z,76.32
2023-01-09T04:14:16.028Z,76.64
2023-01-09T04:15:16.932Z,77.15
2023-01-09T04:16:17.825Z,77.26
2023-01-09T04:17:18.662Z,78.81
2023-01-09T04:18:19.535Z,78.99
2023-01-09T04:19:20.424Z,79.09
2023-01-09T04:20:21.302Z,79.50
2023-01-09T04:21:22.186Z,80.02
2023-01-09T04:22:23.072Z,79.81
2023-01-09T04:23:23.951Z,79.71
2023-01-09T04:24:24.847Z,80.12
2023-01-09T04:25:25.726Z,80.33
2023-01-09T04:26:26.599Z,80.43
2023-01-09T04:27:27.484Z,80.95
2023-01-09T04:28:28.357Z,81.37
2023-01-09T04:29:29.246Z,81.64
2023-01-09T04:30:30.143Z,82.36
2023-01-09T04:31:31.056Z,82.36
2023-01-09T04:32:31.895Z,82.15
2023-01-09T04:33:32.774Z,82.05
2023-01-09T04:34:33.652Z,82.78
2023-01-09T04:35:34.562Z,82.78
2023-01-09T04:36:35.407Z,82.57
2023-01-09T04:37:36.287Z,83.09
2023-01-09T04:38:37.175Z,83.19
2023-01-09T04:39:38.068Z,83.50
2023-01-09T04:40:38.938Z,83.81
2023-01-09T04:41:39.821Z,83.19
2023-01-09T04:42:40.704Z,83.19
2023-01-09T04:43:41.585Z,83.81
2023-01-09T04:44:42.467Z,84.22
2023-01-09T04:45:43.434Z,83.95
2023-01-09T04:46:44.263Z,84.16
2023-01-09T04:47:45.150Z,84.47
2023-01-09T04:48:46.033Z,83.85
2023-01-09T04:49:46.923Z,83.85
2023-01-09T04:50:47.807Z,84.06
2023-01-09T04:51:48.698Z,84.06
2023-01-09T04:52:49.579Z,84.37
2023-01-09T04:53:50.468Z,84.99
2023-01-09T04:54:51.357Z,84.68
2023-01-09T04:55:52.238Z,84.99
2023-01-09T04:56:53.114Z,85.82
2023-01-09T04:57:54.013Z,85.40
2023-01-09T04:58:54.867Z,85.19
2023-01-09T04:59:55.759Z,85.50
2023-01-09T05:00:56.797Z,85.61
2023-01-09T05:01:57.297Z,85.71
2023-01-09T05:02:57.669Z,85.71
2023-01-09T05:03:58.569Z,85.82
2023-01-09T05:04:59.440Z,85.50
2023-01-09T05:06:00.320Z,86.02
2023-01-09T05:07:01.211Z,86.65
2023-01-09T05:08:02.084Z,87.06
2023-01-09T05:09:02.966Z,87.16
2023-01-09T05:10:03.862Z,86.54
2023-01-09T05:11:04.751Z,87.16
2023-01-09T05:12:05.626Z,86.65
2023-01-09T05:13:06.503Z,87.51
2023-01-09T05:14:07.392Z,87.78
2023-01-09T05:15:08.265Z,88.82
2023-01-09T05:16:09.298Z,88.86
2023-01-09T05:17:10.122Z,88.76
2023-01-09T05:18:11.003Z,89.28
2023-01-09T05:19:11.879Z,89.58
2023-01-09T05:20:12.778Z,89.17
2023-01-09T05:21:13.643Z,88.96
2023-01-09T05:22:14.527Z,89.07
2023-01-09T05:23:15.412Z,89.07
2023-01-09T05:24:16.293Z,89.79
2023-01-09T05:25:17.175Z,89.83
2023-01-09T05:26:18.064Z,89.62
2023-01-09T05:27:18.944Z,90.45
2023-01-09T05:28:19.829Z,90.25
2023-01-09T05:29:20.718Z,90.04
2023-01-09T05:30:21.612Z,89.42
2023-01-09T05:31:22.542Z,88.90
2023-01-09T05:32:23.416Z,88.90
2023-01-09T05:33:24.293Z,89.52
2023-01-09T05:34:25.169Z,89.42
2023-01-09T05:35:26.059Z,89.21
2023-01-09T05:36:26.933Z,89.00
2023-01-09T05:37:27.821Z,89.52
2023-01-09T05:38:28.702Z,89.11
2023-01-09T05:39:29.596Z,89.42
2023-01-09T05:40:39.621Z,89.77
2023-01-09T05:41:32.261Z,90.08
2023-01-09T05:42:32.134Z,90.50
2023-01-09T05:43:33.010Z,90.39
2023-01-09T05:44:33.892Z,90.29
2023-01-09T05:45:34.902Z,89.98
2023-01-09T05:46:35.757Z,90.08
2023-01-09T05:47:36.614Z,90.19
2023-01-09T05:48:37.491Z,90.19
2023-01-09T05:49:38.364Z,90.60
2023-01-09T05:50:39.264Z,90.70
2023-01-09T05:51:40.136Z,90.85
2023-01-09T05:52:41.015Z,91.37
2023-01-09T05:53:41.885Z,91.37
2023-01-09T05:54:42.769Z,91.68
2023-01-09T05:55:43.675Z,91.47
2023-01-09T05:56:44.551Z,91.27
2023-01-09T05:57:45.423Z,90.95
2023-01-09T05:58:46.342Z,90.85
2023-01-09T05:59:47.185Z,90.75
2023-01-09T06:00:48.077Z,90.95
2023-01-09T06:01:49.028Z,90.44
2023-01-09T06:02:49.915Z,90.44
2023-01-09T06:03:50.866Z,90.44
2023-01-09T06:04:51.752Z,90.12
2023-01-09T06:05:52.641Z,90.12
2023-01-09T06:06:53.521Z,90.33
2023-01-09T06:07:54.410Z,90.23
2023-01-09T06:08:55.288Z,90.75
2023-01-09T06:09:56.169Z,90.54
2023-01-09T06:10:57.064Z,90.23
2023-01-09T06:11:57.945Z,90.33
2023-01-09T06:12:58.834Z,90.54
2023-01-09T06:13:59.712Z,90.33
2023-01-09T06:15:00.600Z,90.23
2023-01-09T06:16:01.515Z,89.92
2023-01-09T06:17:02.396Z,89.92
2023-01-09T06:18:03.245Z,90.23
2023-01-09T06:19:04.123Z,90.12
2023-01-09T06:20:05.011Z,90.12
2023-01-09T06:21:05.900Z,90.23
2023-01-09T06:22:06.786Z,90.33
2023-01-09T06:23:07.652Z,91.06
2023-01-09T06:24:08.544Z,90.85
2023-01-09T06:25:09.423Z,91.47
2023-01-09T06:26:10.319Z,91.00
2023-01-09T06:27:11.195Z,91.06
2023-01-09T06:28:12.081Z,91.52
2023-01-09T06:29:12.962Z,91.27
2023-01-09T06:30:13.851Z,91.20
2023-01-09T06:31:14.801Z,91.41
2023-01-09T06:32:15.701Z,91.31
2023-01-09T06:33:16.546Z,91.31
2023-01-09T06:34:17.428Z,91.41
2023-01-09T06:35:18.312Z,91.41
2023-01-09T06:36:20.954Z,91.41
2023-01-09T06:37:20.078Z,91.41
2023-01-09T06:38:20.960Z,91.41
2023-01-09T06:39:21.836Z,91.62
2023-01-09T06:40:22.721Z,92.35
2023-01-09T06:41:23.611Z,92.45
2023-01-09T06:42:24.497Z,92.55
2023-01-09T06:43:25.372Z,92.55
2023-01-09T06:44:26.206Z,92.35
2023-01-09T06:45:27.078Z,92.55
2023-01-09T06:46:28.034Z,92.55
2023-01-09T06:47:28.956Z,92.66
2023-01-09T06:48:29.716Z,92.86
2023-01-09T06:49:30.590Z,93.07
2023-01-09T06:50:31.470Z,92.97
2023-01-09T06:51:32.356Z,92.24
2023-01-09T06:52:33.210Z,92.18
2023-01-09T06:53:34.017Z,92.38
2023-01-09T06:54:34.856Z,92.69
2023-01-09T06:55:35.664Z,93.12
2023-01-09T06:56:36.505Z,93.43
2023-01-09T06:57:37.327Z,93.01
2023-01-09T06:58:38.152Z,93.12
2023-01-09T06:59:38.973Z,93.12
2023-01-09T07:00:39.799Z,93.22
2023-01-09T07:01:40.836Z,93.43
2023-01-09T07:02:41.178Z,93.12
2023-01-09T07:03:42.063Z,93.43
2023-01-09T07:04:42.847Z,93.22
2023-01-09T07:05:43.679Z,93.12
2023-01-09T07:06:44.527Z,93.22
2023-01-09T07:07:45.352Z,93.01
2023-01-09T07:08:47.914Z,93.01
2023-01-09T07:09:46.769Z,93.32
2023-01-09T07:10:47.602Z,93.53
2023-01-09T07:11:48.432Z,93.43
2023-01-09T07:12:49.260Z,93.32
2023-01-09T07:13:50.097Z,93.22
2023-01-09T07:14:50.930Z,93.22
2023-01-09T07:15:51.798Z,93.53
2023-01-09T07:16:52.583Z,93.95
2023-01-09T07:17:53.433Z,94.15
2023-01-09T07:18:54.238Z,94.26
2023-01-09T07:19:55.084Z,93.95
2023-01-09T07:20:55.900Z,94.05
2023-01-09T07:21:56.729Z,94.05
2023-01-09T07:22:57.560Z,93.95
2023-01-09T07:23:58.375Z,93.74
2023-01-09T07:24:59.210Z,93.43
2023-01-09T07:26:00.030Z,93.43
2023-01-09T07:27:00.867Z,93.43
2023-01-09T07:28:01.693Z,93.22
2023-01-09T07:29:02.524Z,93.12
2023-01-09T07:30:03.351Z,93.22
2023-01-09T07:31:04.191Z,93.12
2023-01-09T07:32:05.021Z,93.32
2023-01-09T07:33:05.866Z,93.32
2023-01-09T07:34:06.670Z,93.53
2023-01-09T07:35:07.488Z,93.74
2023-01-09T07:36:08.329Z,93.53
2023-01-09T07:37:09.156Z,93.74
2023-01-09T07:38:09.987Z,93.84
2023-01-09T07:39:10.813Z,93.63
2023-01-09T07:40:11.650Z,93.63
2023-01-09T07:41:12.472Z,93.95
2023-01-09T07:42:13.319Z,93.74
2023-01-09T07:43:14.145Z,93.74
2023-01-09T07:44:14.961Z,93.84
2023-01-09T07:45:15.792Z,94.26
2023-01-09T07:46:16.667Z,93.95
2023-01-09T07:47:17.445Z,94.46
2023-01-09T07:48:18.286Z,94.36
2023-01-09T07:49:19.092Z,94.26
2023-01-09T07:50:19.912Z,94.46
2023-01-09T07:51:20.743Z,94.67
2023-01-09T07:52:21.583Z,94.36
2023-01-09T07:53:22.408Z,93.95
2023-01-09T07:54:23.242Z,94.36
2023-01-09T07:55:24.071Z,94.15
2023-01-09T07:56:24.896Z,94.05
2023-01-09T07:57:25.733Z,94.15
2023-01-09T07:58:26.546Z,93.74
2023-01-09T07:59:27.387Z,93.22
2023-01-09T08:00:28.219Z,92.90
2023-01-09T08:01:29.219Z,92.38
2023-01-09T08:02:30.086Z,92.38
2023-01-09T08:03:30.930Z,92.18
2023-01-09T08:04:31.719Z,92.49
2023-01-09T08:05:32.545Z,93.22
2023-01-09T08:06:33.367Z,93.22
2023-01-09T08:07:34.206Z,93.32
2023-01-09T08:08:35.038Z,93.43
2023-01-09T08:09:35.873Z,93.43
2023-01-09T08:10:36.704Z,93.01
2023-01-09T08:11:37.524Z,92.38
2023-01-09T08:12:38.364Z,91.76
2023-01-09T08:13:39.186Z,91.03
2023-01-09T08:14:40.007Z,91.03
2023-01-09T08:15:40.904Z,91.03
2023-01-09T08:16:41.706Z,91.03
2023-01-09T08:17:42.548Z,90.83
2023-01-09T08:18:43.398Z,90.62
2023-01-09T08:19:44.207Z,90.52
2023-01-09T08:20:45.069Z,90.00
2023-01-09T08:21:45.899Z,89.96
2023-01-09T08:22:46.727Z,90.06
2023-01-09T08:23:47.554Z,89.96
2023-01-09T08:24:48.395Z,89.54
2023-01-09T08:25:49.207Z,89.13
2023-01-09T08:26:50.026Z,89.13
2023-01-09T08:27:50.882Z,88.92
2023-01-09T08:28:51.692Z,88.82
2023-01-09T08:29:52.528Z,89.03
2023-01-09T08:30:53.348Z,89.03
2023-01-09T08:31:54.183Z,88.92
2023-01-09T08:32:55.009Z,88.92
2023-01-09T08:33:55.884Z,88.92
2023-01-09T08:34:56.750Z,89.03
2023-01-09T08:35:57.600Z,89.03
2023-01-09T08:36:58.384Z,89.13
2023-01-09T08:37:59.222Z,89.23
2023-01-09T08:39:00.041Z,89.13
2023-01-09T08:40:00.869Z,89.13
2023-01-09T08:41:01.707Z,89.44
2023-01-09T08:42:02.523Z,89.65
2023-01-09T08:43:03.364Z,89.03
2023-01-09T08:44:04.216Z,88.09
2023-01-09T08:45:05.012Z,87.78
2023-01-09T08:46:05.986Z,88.09
2023-01-09T08:47:06.426Z,87.88
2023-01-09T08:48:07.275Z,87.78
2023-01-09T08:49:08.097Z,87.99
2023-01-09T08:50:08.908Z,87.88
2023-01-09T08:51:09.740Z,87.88
2023-01-09T08:52:10.569Z,87.88
2023-01-09T08:53:11.420Z,87.68
2023-01-09T08:54:12.239Z,87.57
2023-01-09T08:55:13.064Z,87.57
2023-01-09T08:56:13.888Z,87.88
2023-01-09T08:57:14.749Z,87.63
2023-01-09T08:58:15.544Z,87.57
2023-01-09T08:59:16.372Z,87.47
2023-01-09T09:00:17.195Z,87.22
2023-01-09T09:01:18.069Z,86.85
2023-01-09T09:02:18.909Z,86.64
2023-01-09T09:03:19.725Z,86.43
2023-01-09T09:04:20.574Z,86.54
2023-01-09T09:05:21.379Z,86.64
2023-01-09T09:06:22.221Z,86.74
2023-01-09T09:07:23.043Z,86.95
2023-01-09T09:08:23.876Z,87.05
2023-01-09T09:09:24.711Z,87.16
2023-01-09T09:10:25.539Z,87.05
2023-01-09T09:11:26.362Z,86.74
2023-01-09T09:12:27.188Z,86.74
2023-01-09T09:13:28.033Z,86.33
2023-01-09T09:14:28.855Z,85.77
2023-01-09T09:15:29.682Z,85.60
2023-01-09T09:16:30.626Z,85.60
2023-01-09T09:17:31.436Z,85.81
2023-01-09T09:18:32.279Z,85.66
2023-01-09T09:19:33.126Z,85.35
2023-01-09T09:20:33.944Z,84.94
2023-01-09T09:21:34.774Z,85.14
2023-01-09T09:22:35.589Z,85.35
2023-01-09T09:23:36.435Z,85.35
2023-01-09T09:24:37.259Z,85.04
2023-01-09T09:25:38.103Z,85.56
2023-01-09T09:26:38.918Z,86.39
2023-01-09T09:27:39.737Z,87.12
2023-01-09T09:28:40.583Z,87.63
2023-01-09T09:29:41.399Z,86.80
2023-01-09T09:30:42.229Z,86.18
2023-01-09T09:31:43.050Z,85.46
2023-01-09T09:32:43.876Z,84.73
2023-01-09T09:33:44.719Z,84.94
2023-01-09T09:34:45.579Z,84.83
2023-01-09T09:35:46.382Z,84.94
2023-01-09T09:36:47.220Z,85.25
2023-01-09T09:37:48.025Z,86.08
2023-01-09T09:38:48.868Z,86.91
2023-01-09T09:39:49.697Z,87.95
2023-01-09T09:40:50.524Z,88.46
2023-01-09T09:41:51.349Z,88.67
2023-01-09T09:42:52.180Z,88.78
2023-01-09T09:43:53.020Z,88.78
2023-01-09T09:44:54.321Z,88.73
2023-01-09T09:45:54.743Z,89.04
2023-01-09T09:46:55.570Z,89.04
2023-01-09T09:47:56.398Z,88.84
2023-01-09T09:48:57.226Z,88.11
2023-01-09T09:49:58.080Z,87.38
2023-01-09T09:50:58.878Z,88.21
2023-01-09T09:51:59.701Z,89.25
2023-01-09T09:53:00.529Z,89.56
2023-01-09T09:54:01.358Z,90.08
2023-01-09T09:55:02.209Z,90.50
2023-01-09T09:56:03.047Z,90.91
2023-01-09T09:57:03.856Z,90.81
2023-01-09T09:58:04.690Z,91.02
2023-01-09T09:59:05.518Z,90.81
2023-01-09T10:00:06.346Z,90.70
2023-01-09T10:01:07.191Z,90.50
2023-01-09T10:02:08.077Z,90.50
2023-01-09T10:03:08.970Z,90.39
2023-01-09T10:04:09.759Z,90.29
2023-01-09T10:05:10.609Z,89.56
2023-01-09T10:06:11.410Z,88.73
2023-01-09T10:07:12.238Z,88.73
2023-01-09T10:08:16.069Z,89.15
2023-01-09T10:09:14.001Z,89.31
2023-01-09T10:10:14.842Z,88.69
2023-01-09T10:11:15.657Z,87.76
2023-01-09T10:12:16.479Z,86.72
2023-01-09T10:13:17.310Z,86.00
2023-01-09T10:14:24.209Z,86.31
2023-01-09T10:15:19.860Z,85.38
2023-01-09T10:16:19.697Z,84.96
2023-01-09T10:17:20.518Z,83.41
2023-01-09T10:18:21.338Z,83.00
2023-01-09T10:19:22.175Z,83.00
2023-01-09T10:20:23.044Z,83.20
2023-01-09T10:21:23.832Z,82.27
2023-01-09T10:22:25.262Z,81.75
2023-01-09T10:23:25.545Z,81.13
2023-01-09T10:24:26.383Z,81.34
2023-01-09T10:25:27.213Z,81.44
2023-01-09T10:26:28.048Z,81.54
2023-01-09T10:27:28.892Z,81.75
2023-01-09T10:28:29.368Z,81.85
2023-01-09T10:29:30.206Z,81.75
2023-01-09T10:30:31.037Z,81.85
2023-01-09T10:31:31.920Z,80.71
2023-01-09T10:32:32.702Z,80.19
2023-01-09T10:33:33.545Z,80.30
2023-01-09T10:34:34.377Z,80.19
2023-01-09T10:35:47.054Z,80.82
2023-01-09T10:36:36.976Z,80.92
2023-01-09T10:37:36.767Z,80.40
2023-01-09T10:38:37.597Z,78.96
2023-01-09T10:39:38.419Z,78.64
2023-01-09T10:40:39.251Z,79.06
2023-01-09T10:41:40.079Z,79.27
2023-01-09T10:42:40.910Z,79.47
2023-01-09T10:43:41.731Z,79.37
2023-01-09T10:44:42.558Z,78.85
2023-01-09T10:45:43.376Z,79.37
2023-01-09T10:46:44.263Z,79.47
2023-01-09T10:47:45.055Z,79.27
2023-01-09T10:48:45.889Z,79.47
2023-01-09T10:49:46.731Z,80.30
2023-01-09T10:50:47.594Z,80.36
2023-01-09T10:51:48.390Z,80.09
2023-01-09T10:52:49.223Z,79.58
2023-01-09T10:53:50.053Z,79.54
2023-01-09T10:54:50.877Z,79.23
2023-01-09T10:55:51.710Z,79.13
2023-01-09T10:56:52.542Z,78.40
2023-01-09T10:57:53.380Z,77.57
2023-01-09T10:58:54.192Z,77.88
2023-01-09T10:59:55.022Z,77.88
2023-01-09T11:00:55.856Z,77.05
2023-01-09T11:01:56.767Z,75.02
2023-01-09T11:02:57.540Z,74.91
2023-01-09T11:03:58.360Z,76.05
2023-01-09T11:04:59.198Z,75.32
2023-01-09T11:06:00.058Z,75.43
2023-01-09T11:07:00.865Z,76.26
2023-01-09T11:08:01.701Z,76.05
2023-01-09T11:09:02.528Z,76.46
2023-01-09T11:10:03.350Z,75.53
2023-01-09T11:11:04.179Z,76.02
2023-01-09T11:12:05.000Z,76.53
2023-01-09T11:13:05.837Z,76.74
2023-01-09T11:14:06.657Z,76.84
2023-01-09T11:15:07.484Z,76.02
2023-01-09T11:16:08.362Z,75.19
2023-01-09T11:17:09.131Z,75.71
2023-01-09T11:18:09.962Z,75.60
2023-01-09T11:19:10.798Z,76.23
2023-01-09T11:20:13.526Z,76.53
2023-01-09T11:21:12.452Z,75.71
2023-01-09T11:22:13.265Z,75.92
2023-01-09T11:23:14.105Z,75.92
2023-01-09T11:24:14.933Z,76.02
2023-01-09T11:25:15.769Z,75.71
2023-01-09T11:26:16.583Z,75.29
2023-01-09T11:27:17.410Z,75.50
2023-01-09T11:28:18.242Z,75.50
2023-01-09T11:29:19.072Z,76.02
2023-01-09T11:30:19.911Z,75.50
2023-01-09T11:31:20.820Z,76.12
2023-01-09T11:32:21.654Z,76.64
2023-01-09T11:33:22.504Z,77.67
2023-01-09T11:34:23.322Z,77.57
2023-01-09T11:35:24.153Z,76.23
2023-01-09T11:36:25.970Z,74.98
2023-01-09T11:37:25.773Z,74.98
2023-01-09T11:38:26.625Z,75.09
2023-01-09T11:39:27.447Z,75.50
2023-01-09T11:40:28.258Z,75.92
2023-01-09T11:41:29.088Z,76.23
2023-01-09T11:42:29.909Z,75.81
2023-01-09T11:43:30.930Z,76.02
2023-01-09T11:44:31.719Z,76.53
2023-01-09T11:45:32.548Z,76.74
2023-01-09T11:46:33.395Z,76.64
2023-01-09T11:47:34.211Z,76.43
2023-01-09T11:48:35.046Z,76.64
2023-01-09T11:49:35.879Z,76.95
2023-01-09T11:50:36.688Z,77.36
2023-01-09T11:51:37.540Z,77.98
2023-01-09T11:52:38.350Z,78.50
2023-01-09T11:53:39.190Z,79.23
2023-01-09T11:54:40.041Z,79.54
2023-01-09T11:55:42.680Z,79.44
2023-01-09T11:56:41.426Z,79.95
2023-01-09T11:57:42.256Z,80.22
2023-01-09T11:58:43.071Z,79.81
2023-01-09T11:59:43.903Z,79.64
2023-01-09T12:00:44.718Z,80.05
2023-01-09T12:01:45.604Z,80.64
2023-01-09T12:02:46.434Z,80.95
2023-01-09T12:03:47.228Z,81.37
2023-01-09T12:04:48.063Z,81.88
2023-01-09T12:05:48.894Z,82.19
2023-01-09T12:06:49.772Z,81.99
2023-01-09T12:07:50.561Z,81.78
2023-01-09T12:08:51.408Z,81.68
2023-01-09T12:09:52.218Z,81.37
2023-01-09T12:10:53.047Z,81.05
2023-01-09T12:11:53.875Z,80.68
2023-01-09T12:12:54.701Z,80.99
2023-01-09T12:13:55.544Z,81.30
2023-01-09T12:14:56.369Z,81.71
2023-01-09T12:15:57.231Z,81.78
2023-01-09T12:16:58.046Z,81.92
2023-01-09T12:17:58.875Z,81.92
2023-01-09T12:18:59.723Z,81.92
2023-01-09T12:20:00.548Z,81.82
2023-01-09T12:21:01.375Z,81.71
2023-01-09T12:22:02.237Z,81.61
2023-01-09T12:23:03.038Z,81.92
2023-01-09T12:24:03.888Z,82.13
2023-01-09T12:25:04.686Z,81.92
2023-01-09T12:26:05.516Z,81.61
2023-01-09T12:27:06.343Z,80.78
2023-01-09T12:28:07.173Z,80.26
2023-01-09T12:29:08.002Z,80.57
2023-01-09T12:30:08.830Z,80.88
2023-01-09T12:31:09.663Z,81.30
2023-01-09T12:32:10.482Z,81.71
2023-01-09T12:33:11.305Z,81.92
2023-01-09T12:34:12.142Z,82.23
2023-01-09T12:35:12.966Z,82.03
2023-01-09T12:36:13.789Z,82.34
2023-01-09T12:37:14.696Z,82.13
2023-01-09T12:38:15.491Z,82.13
2023-01-09T12:39:16.321Z,81.30
2023-01-09T12:40:17.148Z,81.09
2023-01-09T12:41:18.099Z,81.40
2023-01-09T12:42:18.927Z,81.82
2023-01-09T12:43:19.759Z,82.34
2023-01-09T12:44:34.387Z,82.65
2023-01-09T12:45:22.358Z,82.95
2023-01-09T12:46:22.157Z,83.06
2023-01-09T12:47:22.995Z,82.95
2023-01-09T12:48:23.811Z,82.44
2023-01-09T12:49:24.645Z,81.61
2023-01-09T12:50:25.469Z,81.09
2023-01-09T12:51:26.290Z,80.88
2023-01-09T12:52:27.137Z,80.99
2023-01-09T12:53:27.967Z,81.30
2023-01-09T12:54:28.790Z,81.40
2023-01-09T12:55:29.619Z,81.30
2023-01-09T12:56:30.446Z,81.09
2023-01-09T12:57:31.268Z,81.09
2023-01-09T12:58:32.098Z,80.78
2023-01-09T12:59:32.946Z,80.05
2023-01-09T13:00:33.775Z,79.02
2023-01-09T13:01:34.812Z,79.02
2023-01-09T13:02:35.373Z,79.54
2023-01-09T13:03:36.197Z,79.74